sensor_id;sensor_type;location;lat;lon;timestamp;P1;durP1;ratioP1;P2;durP2;ratioP2
64684;SDS011;51109;47.414;18.954;2023-09-19T00:01:33;9.38;;;4.57;;
64684;SDS011;51109;47.414;18.954;2023-09-19T00:03:59;9.40;;;4.35;;
64684;SDS011;51109;47.414;18.954;2023-09-19T00:06:29;8.23;;;4.78;;
64684;SDS011;51109;47.414;18.954;2023-09-19T00:08:57;8.50;;;4.80;;
64684;SDS011;51109;47.414;18.954;2023-09-19T00:11:26;7.68;;;4.75;;
64684;SDS011;51109;47.414;18.954;2023-09-19T00:13:52;6.45;;;4.50;;
64684;SDS011;51109;47.414;18.954;2023-09-19T00:16:18;7.13;;;4.25;;
64684;SDS011;51109;47.414;18.954;2023-09-19T00:18:44;11.55;;;5.30;;
64684;SDS011;51109;47.414;18.954;2023-09-19T00:21:11;8.23;;;4.65;;
64684;SDS011;51109;47.414;18.954;2023-09-19T00:23:37;7.22;;;4.82;;
64684;SDS011;51109;47.414;18.954;2023-09-19T00:26:03;7.97;;;5.05;;
64684;SDS011;51109;47.414;18.954;2023-09-19T00:28:29;7.30;;;4.68;;
64684;SDS011;51109;47.414;18.954;2023-09-19T00:30:56;8.23;;;4.88;;
64684;SDS011;51109;47.414;18.954;2023-09-19T00:33:25;10.20;;;5.88;;
64684;SDS011;51109;47.414;18.954;2023-09-19T00:35:51;7.78;;;4.70;;
64684;SDS011;51109;47.414;18.954;2023-09-19T00:38:18;11.65;;;4.90;;
64684;SDS011;51109;47.414;18.954;2023-09-19T00:40:52;7.93;;;4.97;;
64684;SDS011;51109;47.414;18.954;2023-09-19T00:43:22;11.45;;;5.20;;
64684;SDS011;51109;47.414;18.954;2023-09-19T00:45:50;7.38;;;5.40;;
64684;SDS011;51109;47.414;18.954;2023-09-19T00:48:21;7.32;;;4.85;;
64684;SDS011;51109;47.414;18.954;2023-09-19T00:50:50;8.02;;;5.20;;
64684;SDS011;51109;47.414;18.954;2023-09-19T00:53:18;9.00;;;5.30;;
64684;SDS011;51109;47.414;18.954;2023-09-19T00:55:45;11.52;;;5.85;;
64684;SDS011;51109;47.414;18.954;2023-09-19T00:58:13;9.77;;;5.68;;
64684;SDS011;51109;47.414;18.954;2023-09-19T01:00:40;7.75;;;5.32;;
64684;SDS011;51109;47.414;18.954;2023-09-19T01:03:07;7.88;;;5.15;;
64684;SDS011;51109;47.414;18.954;2023-09-19T01:05:36;9.25;;;5.22;;
64684;SDS011;51109;47.414;18.954;2023-09-19T01:08:02;8.38;;;5.35;;
64684;SDS011;51109;47.414;18.954;2023-09-19T01:10:28;9.40;;;5.85;;
64684;SDS011;51109;47.414;18.954;2023-09-19T01:16:07;10.27;;;6.22;;
64684;SDS011;51109;47.414;18.954;2023-09-19T01:18:54;6.72;;;5.43;;
64684;SDS011;51109;47.414;18.954;2023-09-19T01:24:31;11.43;;;5.57;;
64684;SDS011;51109;47.414;18.954;2023-09-19T01:29:46;12.40;;;6.28;;
64684;SDS011;51109;47.414;18.954;2023-09-19T01:32:15;6.18;;;5.30;;
64684;SDS011;51109;47.414;18.954;2023-09-19T01:37:17;7.75;;;5.55;;
64684;SDS011;51109;47.414;18.954;2023-09-19T01:39:58;6.55;;;5.50;;
64684;SDS011;51109;47.414;18.954;2023-09-19T01:45:34;9.95;;;6.55;;
64684;SDS011;51109;47.414;18.954;2023-09-19T01:50:59;9.57;;;6.15;;
64684;SDS011;51109;47.414;18.954;2023-09-19T01:53:30;14.63;;;6.95;;
64684;SDS011;51109;47.414;18.954;2023-09-19T01:56:00;10.55;;;6.40;;
64684;SDS011;51109;47.414;18.954;2023-09-19T01:58:35;9.95;;;6.47;;
64684;SDS011;51109;47.414;18.954;2023-09-19T02:01:11;8.82;;;6.70;;
64684;SDS011;51109;47.414;18.954;2023-09-19T02:03:40;11.82;;;7.30;;
64684;SDS011;51109;47.414;18.954;2023-09-19T02:06:07;9.48;;;7.07;;
64684;SDS011;51109;47.414;18.954;2023-09-19T02:08:36;11.32;;;6.60;;
64684;SDS011;51109;47.414;18.954;2023-09-19T02:11:02;9.82;;;7.00;;
64684;SDS011;51109;47.414;18.954;2023-09-19T02:13:28;10.45;;;6.63;;
64684;SDS011;51109;47.414;18.954;2023-09-19T02:15:56;10.52;;;6.40;;
64684;SDS011;51109;47.414;18.954;2023-09-19T02:18:22;8.23;;;6.32;;
64684;SDS011;51109;47.414;18.954;2023-09-19T02:20:48;8.77;;;6.47;;
64684;SDS011;51109;47.414;18.954;2023-09-19T02:23:16;9.05;;;6.65;;
64684;SDS011;51109;47.414;18.954;2023-09-19T02:25:42;10.85;;;6.63;;
64684;SDS011;51109;47.414;18.954;2023-09-19T02:28:16;11.13;;;6.45;;
64684;SDS011;51109;47.414;18.954;2023-09-19T02:30:42;10.50;;;6.50;;
64684;SDS011;51109;47.414;18.954;2023-09-19T02:33:08;10.75;;;6.68;;
64684;SDS011;51109;47.414;18.954;2023-09-19T02:35:34;9.10;;;6.78;;
64684;SDS011;51109;47.414;18.954;2023-09-19T02:38:01;11.20;;;6.70;;
64684;SDS011;51109;47.414;18.954;2023-09-19T02:40:31;8.98;;;7.47;;
64684;SDS011;51109;47.414;18.954;2023-09-19T02:43:01;13.13;;;6.70;;
64684;SDS011;51109;47.414;18.954;2023-09-19T02:45:27;11.20;;;6.80;;
64684;SDS011;51109;47.414;18.954;2023-09-19T02:47:53;14.15;;;6.95;;
64684;SDS011;51109;47.414;18.954;2023-09-19T02:50:20;10.10;;;6.35;;
64684;SDS011;51109;47.414;18.954;2023-09-19T02:52:46;8.15;;;6.38;;
64684;SDS011;51109;47.414;18.954;2023-09-19T02:55:14;11.60;;;6.80;;
64684;SDS011;51109;47.414;18.954;2023-09-19T02:57:52;12.10;;;7.22;;
64684;SDS011;51109;47.414;18.954;2023-09-19T03:00:20;8.82;;;7.05;;
64684;SDS011;51109;47.414;18.954;2023-09-19T03:02:50;9.38;;;6.63;;
64684;SDS011;51109;47.414;18.954;2023-09-19T03:05:19;9.73;;;7.35;;
64684;SDS011;51109;47.414;18.954;2023-09-19T03:07:49;14.50;;;6.65;;
64684;SDS011;51109;47.414;18.954;2023-09-19T03:10:18;16.02;;;6.55;;
64684;SDS011;51109;47.414;18.954;2023-09-19T03:12:45;10.45;;;5.93;;
64684;SDS011;51109;47.414;18.954;2023-09-19T03:15:14;8.35;;;5.75;;
64684;SDS011;51109;47.414;18.954;2023-09-19T03:17:45;9.20;;;5.93;;
64684;SDS011;51109;47.414;18.954;2023-09-19T03:20:12;9.00;;;6.65;;
64684;SDS011;51109;47.414;18.954;2023-09-19T03:22:41;11.55;;;6.28;;
64684;SDS011;51109;47.414;18.954;2023-09-19T03:25:08;11.35;;;6.97;;
64684;SDS011;51109;47.414;18.954;2023-09-19T03:27:40;9.02;;;6.15;;
64684;SDS011;51109;47.414;18.954;2023-09-19T03:32:45;11.48;;;7.03;;
64684;SDS011;51109;47.414;18.954;2023-09-19T03:35:12;10.65;;;6.40;;
64684;SDS011;51109;47.414;18.954;2023-09-19T03:37:42;11.30;;;6.72;;
64684;SDS011;51109;47.414;18.954;2023-09-19T03:40:09;11.75;;;6.78;;
64684;SDS011;51109;47.414;18.954;2023-09-19T03:42:39;8.45;;;6.40;;
64684;SDS011;51109;47.414;18.954;2023-09-19T03:45:06;10.02;;;6.43;;
64684;SDS011;51109;47.414;18.954;2023-09-19T03:47:36;9.57;;;6.50;;
64684;SDS011;51109;47.414;18.954;2023-09-19T03:50:02;13.10;;;7.03;;
64684;SDS011;51109;47.414;18.954;2023-09-19T03:52:28;8.45;;;6.40;;
64684;SDS011;51109;47.414;18.954;2023-09-19T03:54:54;14.63;;;6.97;;
64684;SDS011;51109;47.414;18.954;2023-09-19T03:57:20;9.73;;;6.45;;
64684;SDS011;51109;47.414;18.954;2023-09-19T03:59:46;12.70;;;6.72;;
64684;SDS011;51109;47.414;18.954;2023-09-19T04:02:12;15.25;;;7.05;;
64684;SDS011;51109;47.414;18.954;2023-09-19T04:04:50;13.50;;;6.57;;
64684;SDS011;51109;47.414;18.954;2023-09-19T04:07:17;11.20;;;7.63;;
64684;SDS011;51109;47.414;18.954;2023-09-19T04:09:47;13.05;;;6.63;;
64684;SDS011;51109;47.414;18.954;2023-09-19T04:12:14;20.42;;;7.07;;
64684;SDS011;51109;47.414;18.954;2023-09-19T04:14:42;10.20;;;7.32;;
64684;SDS011;51109;47.414;18.954;2023-09-19T04:17:08;12.65;;;8.00;;
64684;SDS011;51109;47.414;18.954;2023-09-19T04:19:35;10.68;;;6.93;;
64684;SDS011;51109;47.414;18.954;2023-09-19T04:22:01;9.15;;;7.07;;
64684;SDS011;51109;47.414;18.954;2023-09-19T04:24:28;11.55;;;6.85;;
64684;SDS011;51109;47.414;18.954;2023-09-19T04:26:54;14.57;;;7.40;;
64684;SDS011;51109;47.414;18.954;2023-09-19T04:29:19;10.38;;;6.85;;
64684;SDS011;51109;47.414;18.954;2023-09-19T04:31:45;5.72;;;4.20;;
64684;SDS011;51109;47.414;18.954;2023-09-19T04:34:11;5.90;;;3.67;;
64684;SDS011;51109;47.414;18.954;2023-09-19T04:36:41;5.50;;;2.80;;
64684;SDS011;51109;47.414;18.954;2023-09-19T04:39:07;4.00;;;2.28;;
64684;SDS011;51109;47.414;18.954;2023-09-19T04:41:33;3.45;;;1.83;;
64684;SDS011;51109;47.414;18.954;2023-09-19T04:43:59;2.90;;;1.60;;
64684;SDS011;51109;47.414;18.954;2023-09-19T04:46:25;1.27;;;1.17;;
64684;SDS011;51109;47.414;18.954;2023-09-19T04:48:51;1.55;;;1.45;;
64684;SDS011;51109;47.414;18.954;2023-09-19T04:51:17;3.63;;;1.23;;
64684;SDS011;51109;47.414;18.954;2023-09-19T04:53:44;1.83;;;1.50;;
64684;SDS011;51109;47.414;18.954;2023-09-19T04:56:10;2.22;;;1.30;;
64684;SDS011;51109;47.414;18.954;2023-09-19T04:58:35;0.98;;;0.95;;
64684;SDS011;51109;47.414;18.954;2023-09-19T05:01:01;2.50;;;0.98;;
64684;SDS011;51109;47.414;18.954;2023-09-19T05:03:28;1.55;;;1.08;;
64684;SDS011;51109;47.414;18.954;2023-09-19T05:05:54;1.38;;;1.10;;
64684;SDS011;51109;47.414;18.954;2023-09-19T05:08:20;2.25;;;1.05;;
64684;SDS011;51109;47.414;18.954;2023-09-19T05:10:47;2.53;;;0.77;;
64684;SDS011;51109;47.414;18.954;2023-09-19T05:13:14;1.38;;;0.80;;
64684;SDS011;51109;47.414;18.954;2023-09-19T05:15:40;1.50;;;0.88;;
64684;SDS011;51109;47.414;18.954;2023-09-19T05:18:06;1.10;;;0.80;;
64684;SDS011;51109;47.414;18.954;2023-09-19T05:20:32;3.38;;;0.63;;
64684;SDS011;51109;47.414;18.954;2023-09-19T05:23:00;1.42;;;0.80;;
64684;SDS011;51109;47.414;18.954;2023-09-19T05:25:37;2.03;;;0.80;;
64684;SDS011;51109;47.414;18.954;2023-09-19T05:28:08;0.73;;;0.73;;
64684;SDS011;51109;47.414;18.954;2023-09-19T05:30:37;0.80;;;0.70;;
64684;SDS011;51109;47.414;18.954;2023-09-19T05:33:06;1.05;;;0.70;;
64684;SDS011;51109;47.414;18.954;2023-09-19T05:35:33;2.97;;;1.02;;
64684;SDS011;51109;47.414;18.954;2023-09-19T05:37:59;2.25;;;0.77;;
64684;SDS011;51109;47.414;18.954;2023-09-19T05:40:25;1.10;;;0.63;;
64684;SDS011;51109;47.414;18.954;2023-09-19T05:42:52;1.38;;;0.70;;
64684;SDS011;51109;47.414;18.954;2023-09-19T05:45:18;1.27;;;0.80;;
64684;SDS011;51109;47.414;18.954;2023-09-19T05:47:51;0.98;;;0.80;;
64684;SDS011;51109;47.414;18.954;2023-09-19T05:50:21;3.17;;;0.93;;
64684;SDS011;51109;47.414;18.954;2023-09-19T05:52:53;1.20;;;0.70;;
64684;SDS011;51109;47.414;18.954;2023-09-19T05:55:21;0.60;;;0.60;;
64684;SDS011;51109;47.414;18.954;2023-09-19T05:57:53;0.68;;;0.68;;
64684;SDS011;51109;47.414;18.954;2023-09-19T06:00:23;1.63;;;0.90;;
64684;SDS011;51109;47.414;18.954;2023-09-19T06:02:55;1.13;;;0.80;;
64684;SDS011;51109;47.414;18.954;2023-09-19T06:07:49;1.95;;;0.93;;
64684;SDS011;51109;47.414;18.954;2023-09-19T06:10:15;0.77;;;0.77;;
64684;SDS011;51109;47.414;18.954;2023-09-19T06:12:42;0.77;;;0.60;;
64684;SDS011;51109;47.414;18.954;2023-09-19T06:15:09;1.00;;;0.90;;
64684;SDS011;51109;47.414;18.954;2023-09-19T06:17:41;1.10;;;0.80;;
64684;SDS011;51109;47.414;18.954;2023-09-19T06:20:14;1.58;;;1.25;;
64684;SDS011;51109;47.414;18.954;2023-09-19T06:22:44;0.73;;;0.73;;
64684;SDS011;51109;47.414;18.954;2023-09-19T06:25:11;2.05;;;0.70;;
64684;SDS011;51109;47.414;18.954;2023-09-19T06:27:38;0.77;;;0.77;;
64684;SDS011;51109;47.414;18.954;2023-09-19T06:30:07;2.03;;;0.90;;
64684;SDS011;51109;47.414;18.954;2023-09-19T06:32:34;1.92;;;0.93;;
64684;SDS011;51109;47.414;18.954;2023-09-19T06:35:01;0.77;;;0.77;;
64684;SDS011;51109;47.414;18.954;2023-09-19T06:37:28;1.55;;;0.68;;
64684;SDS011;51109;47.414;18.954;2023-09-19T06:39:55;1.55;;;1.02;;
64684;SDS011;51109;47.414;18.954;2023-09-19T06:42:22;0.88;;;0.77;;
64684;SDS011;51109;47.414;18.954;2023-09-19T06:44:48;2.13;;;1.17;;
64684;SDS011;51109;47.414;18.954;2023-09-19T06:47:14;0.70;;;0.70;;
64684;SDS011;51109;47.414;18.954;2023-09-19T06:49:41;0.55;;;0.55;;
64684;SDS011;51109;47.414;18.954;2023-09-19T06:52:09;3.20;;;0.98;;
64684;SDS011;51109;47.414;18.954;2023-09-19T06:54:35;1.75;;;1.10;;
64684;SDS011;51109;47.414;18.954;2023-09-19T06:57:01;0.82;;;0.82;;
64684;SDS011;51109;47.414;18.954;2023-09-19T06:59:28;0.60;;;0.60;;
64684;SDS011;51109;47.414;18.954;2023-09-19T07:01:54;0.93;;;0.88;;
64684;SDS011;51109;47.414;18.954;2023-09-19T07:04:20;2.45;;;0.80;;
64684;SDS011;51109;47.414;18.954;2023-09-19T07:06:49;0.70;;;0.70;;
64684;SDS011;51109;47.414;18.954;2023-09-19T07:09:15;1.83;;;1.40;;
64684;SDS011;51109;47.414;18.954;2023-09-19T07:11:42;2.55;;;0.82;;
64684;SDS011;51109;47.414;18.954;2023-09-19T07:14:08;1.00;;;0.90;;
64684;SDS011;51109;47.414;18.954;2023-09-19T07:16:37;5.38;;;1.90;;
64684;SDS011;51109;47.414;18.954;2023-09-19T07:19:05;0.80;;;0.68;;
64684;SDS011;51109;47.414;18.954;2023-09-19T07:21:30;1.50;;;0.95;;
64684;SDS011;51109;47.414;18.954;2023-09-19T07:23:59;1.77;;;0.90;;
64684;SDS011;51109;47.414;18.954;2023-09-19T07:26:29;1.40;;;0.90;;
64684;SDS011;51109;47.414;18.954;2023-09-19T07:28:56;2.30;;;0.75;;
64684;SDS011;51109;47.414;18.954;2023-09-19T07:31:22;1.05;;;0.93;;
64684;SDS011;51109;47.414;18.954;2023-09-19T07:33:50;0.82;;;0.77;;
64684;SDS011;51109;47.414;18.954;2023-09-19T07:36:16;0.75;;;0.75;;
64684;SDS011;51109;47.414;18.954;2023-09-19T07:38:42;0.70;;;0.70;;
64684;SDS011;51109;47.414;18.954;2023-09-19T07:41:08;2.90;;;1.23;;
64684;SDS011;51109;47.414;18.954;2023-09-19T07:43:35;1.63;;;1.00;;
64684;SDS011;51109;47.414;18.954;2023-09-19T07:46:04;0.70;;;0.70;;
64684;SDS011;51109;47.414;18.954;2023-09-19T07:48:33;1.92;;;1.02;;
64684;SDS011;51109;47.414;18.954;2023-09-19T07:51:06;1.90;;;0.75;;
64684;SDS011;51109;47.414;18.954;2023-09-19T07:53:36;1.15;;;1.08;;
64684;SDS011;51109;47.414;18.954;2023-09-19T07:56:03;2.13;;;1.10;;
64684;SDS011;51109;47.414;18.954;2023-09-19T07:58:34;3.60;;;1.33;;
64684;SDS011;51109;47.414;18.954;2023-09-19T08:01:04;1.15;;;1.02;;
64684;SDS011;51109;47.414;18.954;2023-09-19T08:03:34;1.00;;;0.82;;
64684;SDS011;51109;47.414;18.954;2023-09-19T08:06:03;1.23;;;1.00;;
64684;SDS011;51109;47.414;18.954;2023-09-19T08:08:29;1.23;;;1.13;;
64684;SDS011;51109;47.414;18.954;2023-09-19T08:10:55;2.72;;;1.23;;
64684;SDS011;51109;47.414;18.954;2023-09-19T08:13:25;1.92;;;1.20;;
64684;SDS011;51109;47.414;18.954;2023-09-19T08:15:51;1.15;;;0.95;;
64684;SDS011;51109;47.414;18.954;2023-09-19T08:18:20;2.28;;;1.00;;
64684;SDS011;51109;47.414;18.954;2023-09-19T08:20:49;2.97;;;1.20;;
64684;SDS011;51109;47.414;18.954;2023-09-19T08:23:16;1.85;;;1.30;;
64684;SDS011;51109;47.414;18.954;2023-09-19T08:25:45;1.48;;;0.90;;
64684;SDS011;51109;47.414;18.954;2023-09-19T08:28:12;0.77;;;0.77;;
64684;SDS011;51109;47.414;18.954;2023-09-19T08:30:42;1.52;;;1.00;;
64684;SDS011;51109;47.414;18.954;2023-09-19T08:33:08;2.35;;;0.88;;
64684;SDS011;51109;47.414;18.954;2023-09-19T08:35:34;1.33;;;0.90;;
64684;SDS011;51109;47.414;18.954;2023-09-19T08:38:00;1.45;;;1.10;;
64684;SDS011;51109;47.414;18.954;2023-09-19T08:40:32;1.60;;;1.00;;
64684;SDS011;51109;47.414;18.954;2023-09-19T08:43:01;0.90;;;0.83;;
64684;SDS011;51109;47.414;18.954;2023-09-19T08:45:28;2.58;;;1.17;;
64684;SDS011;51109;47.414;18.954;2023-09-19T08:48:11;1.75;;;1.10;;
64684;SDS011;51109;47.414;18.954;2023-09-19T08:53:42;0.98;;;0.88;;
64684;SDS011;51109;47.414;18.954;2023-09-19T08:56:20;1.40;;;1.30;;
64684;SDS011;51109;47.414;18.954;2023-09-19T08:58:57;1.90;;;1.50;;
64684;SDS011;51109;47.414;18.954;2023-09-19T09:01:28;2.38;;;1.67;;
64684;SDS011;51109;47.414;18.954;2023-09-19T09:03:57;2.55;;;1.75;;
64684;SDS011;51109;47.414;18.954;2023-09-19T09:06:24;3.38;;;2.40;;
64684;SDS011;51109;47.414;18.954;2023-09-19T09:08:51;3.67;;;2.38;;
64684;SDS011;51109;47.414;18.954;2023-09-19T09:11:17;3.50;;;2.30;;
64684;SDS011;51109;47.414;18.954;2023-09-19T09:13:46;2.78;;;2.33;;
64684;SDS011;51109;47.414;18.954;2023-09-19T09:16:13;4.70;;;2.35;;
64684;SDS011;51109;47.414;18.954;2023-09-19T09:18:42;2.58;;;2.05;;
64684;SDS011;51109;47.414;18.954;2023-09-19T09:21:09;2.97;;;2.67;;
64684;SDS011;51109;47.414;18.954;2023-09-19T09:23:35;3.97;;;2.70;;
64684;SDS011;51109;47.414;18.954;2023-09-19T09:26:01;5.05;;;2.53;;
64684;SDS011;51109;47.414;18.954;2023-09-19T09:28:34;3.83;;;2.58;;
64684;SDS011;51109;47.414;18.954;2023-09-19T09:31:04;3.97;;;3.05;;
64684;SDS011;51109;47.414;18.954;2023-09-19T09:33:37;2.65;;;2.45;;
64684;SDS011;51109;47.414;18.954;2023-09-19T09:36:04;3.47;;;2.80;;
64684;SDS011;51109;47.414;18.954;2023-09-19T09:38:45;4.90;;;2.90;;
64684;SDS011;51109;47.414;18.954;2023-09-19T09:41:14;3.83;;;3.00;;
64684;SDS011;51109;47.414;18.954;2023-09-19T09:43:52;3.40;;;2.70;;
64684;SDS011;51109;47.414;18.954;2023-09-19T09:46:19;4.57;;;2.78;;
64684;SDS011;51109;47.414;18.954;2023-09-19T09:48:46;3.30;;;2.78;;
64684;SDS011;51109;47.414;18.954;2023-09-19T09:51:42;4.53;;;3.33;;
64684;SDS011;51109;47.414;18.954;2023-09-19T09:54:14;4.30;;;3.58;;
64684;SDS011;51109;47.414;18.954;2023-09-19T09:56:57;4.40;;;3.20;;
64684;SDS011;51109;47.414;18.954;2023-09-19T10:02:30;6.00;;;3.88;;
64684;SDS011;51109;47.414;18.954;2023-09-19T10:08:11;4.15;;;3.20;;
64684;SDS011;51109;47.414;18.954;2023-09-19T10:10:40;5.35;;;3.45;;
64684;SDS011;51109;47.414;18.954;2023-09-19T10:13:07;4.07;;;3.05;;
64684;SDS011;51109;47.414;18.954;2023-09-19T10:15:44;7.53;;;3.88;;
64684;SDS011;51109;47.414;18.954;2023-09-19T10:18:24;5.45;;;3.55;;
64684;SDS011;51109;47.414;18.954;2023-09-19T10:20:53;5.07;;;3.67;;
64684;SDS011;51109;47.414;18.954;2023-09-19T10:23:20;5.60;;;3.67;;
64684;SDS011;51109;47.414;18.954;2023-09-19T10:25:51;3.60;;;3.30;;
64684;SDS011;51109;47.414;18.954;2023-09-19T10:28:18;6.28;;;3.40;;
64684;SDS011;51109;47.414;18.954;2023-09-19T10:30:47;5.07;;;3.38;;
64684;SDS011;51109;47.414;18.954;2023-09-19T10:33:19;4.22;;;3.45;;
64684;SDS011;51109;47.414;18.954;2023-09-19T10:35:47;5.80;;;3.10;;
64684;SDS011;51109;47.414;18.954;2023-09-19T10:38:19;3.35;;;3.03;;
64684;SDS011;51109;47.414;18.954;2023-09-19T10:40:51;4.50;;;2.75;;
64684;SDS011;51109;47.414;18.954;2023-09-19T10:43:25;3.38;;;2.53;;
64684;SDS011;51109;47.414;18.954;2023-09-19T10:48:22;3.13;;;2.47;;
64684;SDS011;51109;47.414;18.954;2023-09-19T10:50:53;4.18;;;2.60;;
64684;SDS011;51109;47.414;18.954;2023-09-19T10:53:30;3.97;;;2.97;;
64684;SDS011;51109;47.414;18.954;2023-09-19T10:56:07;3.65;;;2.88;;
64684;SDS011;51109;47.414;18.954;2023-09-19T10:58:42;2.80;;;2.45;;
64684;SDS011;51109;47.414;18.954;2023-09-19T11:01:10;4.18;;;2.55;;
64684;SDS011;51109;47.414;18.954;2023-09-19T11:03:40;3.35;;;1.90;;
64684;SDS011;51109;47.414;18.954;2023-09-19T11:06:14;3.50;;;2.25;;
64684;SDS011;51109;47.414;18.954;2023-09-19T11:09:03;3.10;;;2.28;;
64684;SDS011;51109;47.414;18.954;2023-09-19T11:14:28;2.10;;;1.90;;
64684;SDS011;51109;47.414;18.954;2023-09-19T11:30:41;3.28;;;1.30;;
64684;SDS011;51109;47.414;18.954;2023-09-19T11:33:27;1.20;;;1.10;;
64684;SDS011;51109;47.414;18.954;2023-09-19T11:36:04;1.38;;;1.10;;
64684;SDS011;51109;47.414;18.954;2023-09-19T11:43:54;1.42;;;1.00;;
64684;SDS011;51109;47.414;18.954;2023-09-19T11:49:17;1.30;;;1.13;;
64684;SDS011;51109;47.414;18.954;2023-09-19T11:52:04;2.67;;;1.48;;
64684;SDS011;51109;47.414;18.954;2023-09-19T11:54:31;1.40;;;1.08;;
64684;SDS011;51109;47.414;18.954;2023-09-19T11:56:58;1.45;;;1.10;;
64684;SDS011;51109;47.414;18.954;2023-09-19T11:59:31;2.45;;;1.20;;
64684;SDS011;51109;47.414;18.954;2023-09-19T12:07:06;1.37;;;1.10;;
64684;SDS011;51109;47.414;18.954;2023-09-19T12:09:38;1.35;;;1.25;;
64684;SDS011;51109;47.414;18.954;2023-09-19T12:12:06;2.28;;;1.20;;
64684;SDS011;51109;47.414;18.954;2023-09-19T12:14:32;1.60;;;1.50;;
64684;SDS011;51109;47.414;18.954;2023-09-19T12:16:59;1.27;;;1.10;;
64684;SDS011;51109;47.414;18.954;2023-09-19T12:19:27;1.88;;;1.40;;
64684;SDS011;51109;47.414;18.954;2023-09-19T12:21:57;1.63;;;1.20;;
64684;SDS011;51109;47.414;18.954;2023-09-19T12:24:25;1.23;;;1.13;;
64684;SDS011;51109;47.414;18.954;2023-09-19T12:26:59;3.05;;;1.20;;
64684;SDS011;51109;47.414;18.954;2023-09-19T12:29:27;1.20;;;1.10;;
64684;SDS011;51109;47.414;18.954;2023-09-19T12:31:55;2.38;;;1.25;;
64684;SDS011;51109;47.414;18.954;2023-09-19T12:34:23;2.50;;;1.17;;
64684;SDS011;51109;47.414;18.954;2023-09-19T12:37:05;1.65;;;1.25;;
64684;SDS011;51109;47.414;18.954;2023-09-19T12:39:39;1.23;;;1.05;;
64684;SDS011;51109;47.414;18.954;2023-09-19T12:42:15;2.00;;;1.20;;
64684;SDS011;51109;47.414;18.954;2023-09-19T12:44:46;1.50;;;1.30;;
64684;SDS011;51109;47.414;18.954;2023-09-19T12:47:22;2.15;;;1.10;;
64684;SDS011;51109;47.414;18.954;2023-09-19T12:52:54;2.53;;;1.00;;
64684;SDS011;51109;47.414;18.954;2023-09-19T12:55:31;4.13;;;1.30;;
64684;SDS011;51109;47.414;18.954;2023-09-19T12:58:14;4.10;;;1.48;;
64684;SDS011;51109;47.414;18.954;2023-09-19T13:00:44;1.77;;;0.93;;
64684;SDS011;51109;47.414;18.954;2023-09-19T13:06:03;1.38;;;1.17;;
64684;SDS011;51109;47.414;18.954;2023-09-19T13:11:06;1.35;;;1.20;;
64684;SDS011;51109;47.414;18.954;2023-09-19T13:14:26;1.70;;;1.30;;
64684;SDS011;51109;47.414;18.954;2023-09-19T13:16:55;2.20;;;1.05;;
64684;SDS011;51109;47.414;18.954;2023-09-19T13:19:37;2.03;;;1.05;;
64684;SDS011;51109;47.414;18.954;2023-09-19T13:25:14;1.20;;;1.00;;
64684;SDS011;51109;47.414;18.954;2023-09-19T13:27:44;6.25;;;1.42;;
64684;SDS011;51109;47.414;18.954;2023-09-19T13:30:13;2.13;;;1.20;;
64684;SDS011;51109;47.414;18.954;2023-09-19T13:32:39;1.20;;;1.10;;
64684;SDS011;51109;47.414;18.954;2023-09-19T13:35:06;3.78;;;1.30;;
64684;SDS011;51109;47.414;18.954;2023-09-19T13:37:35;3.63;;;1.30;;
64684;SDS011;51109;47.414;18.954;2023-09-19T13:40:09;1.00;;;0.80;;
64684;SDS011;51109;47.414;18.954;2023-09-19T13:42:38;0.90;;;0.90;;
64684;SDS011;51109;47.414;18.954;2023-09-19T13:45:05;4.32;;;1.20;;
64684;SDS011;51109;47.414;18.954;2023-09-19T13:47:34;1.80;;;1.08;;
64684;SDS011;51109;47.414;18.954;2023-09-19T13:50:03;2.15;;;1.30;;
64684;SDS011;51109;47.414;18.954;2023-09-19T13:52:33;3.03;;;1.55;;
64684;SDS011;51109;47.414;18.954;2023-09-19T13:54:59;1.40;;;1.08;;
64684;SDS011;51109;47.414;18.954;2023-09-19T13:57:25;1.95;;;1.08;;
64684;SDS011;51109;47.414;18.954;2023-09-19T13:59:51;1.40;;;1.30;;
64684;SDS011;51109;47.414;18.954;2023-09-19T14:02:21;2.88;;;1.15;;
64684;SDS011;51109;47.414;18.954;2023-09-19T14:04:51;2.28;;;1.20;;
64684;SDS011;51109;47.414;18.954;2023-09-19T14:07:17;5.30;;;1.50;;
64684;SDS011;51109;47.414;18.954;2023-09-19T14:09:45;1.70;;;1.30;;
64684;SDS011;51109;47.414;18.954;2023-09-19T14:12:11;1.38;;;1.27;;
64684;SDS011;51109;47.414;18.954;2023-09-19T14:14:38;1.30;;;1.10;;
64684;SDS011;51109;47.414;18.954;2023-09-19T14:17:04;1.30;;;1.20;;
64684;SDS011;51109;47.414;18.954;2023-09-19T14:19:32;1.83;;;1.00;;
64684;SDS011;51109;47.414;18.954;2023-09-19T14:21:58;2.42;;;1.48;;
64684;SDS011;51109;47.414;18.954;2023-09-19T14:24:25;2.65;;;1.30;;
64684;SDS011;51109;47.414;18.954;2023-09-19T14:26:51;1.20;;;1.10;;
64684;SDS011;51109;47.414;18.954;2023-09-19T14:29:17;1.45;;;1.10;;
64684;SDS011;51109;47.414;18.954;2023-09-19T14:31:43;2.45;;;1.33;;
64684;SDS011;51109;47.414;18.954;2023-09-19T14:34:08;2.00;;;1.00;;
64684;SDS011;51109;47.414;18.954;2023-09-19T14:36:37;1.85;;;1.33;;
64684;SDS011;51109;47.414;18.954;2023-09-19T14:39:04;1.85;;;1.17;;
64684;SDS011;51109;47.414;18.954;2023-09-19T14:41:30;2.00;;;1.10;;
64684;SDS011;51109;47.414;18.954;2023-09-19T14:43:56;2.47;;;1.20;;
64684;SDS011;51109;47.414;18.954;2023-09-19T14:46:22;2.03;;;1.30;;
64684;SDS011;51109;47.414;18.954;2023-09-19T14:48:52;1.08;;;0.93;;
64684;SDS011;51109;47.414;18.954;2023-09-19T14:51:17;2.95;;;1.40;;
64684;SDS011;51109;47.414;18.954;2023-09-19T14:53:44;1.77;;;1.40;;
64684;SDS011;51109;47.414;18.954;2023-09-19T14:56:12;3.40;;;1.55;;
64684;SDS011;51109;47.414;18.954;2023-09-19T14:58:41;2.03;;;1.30;;
64684;SDS011;51109;47.414;18.954;2023-09-19T15:01:10;1.45;;;1.10;;
64684;SDS011;51109;47.414;18.954;2023-09-19T15:03:40;1.70;;;1.23;;
64684;SDS011;51109;47.414;18.954;2023-09-19T15:06:11;1.75;;;1.40;;
64684;SDS011;51109;47.414;18.954;2023-09-19T15:08:43;1.25;;;1.00;;
64684;SDS011;51109;47.414;18.954;2023-09-19T15:11:16;4.20;;;1.38;;
64684;SDS011;51109;47.414;18.954;2023-09-19T15:13:43;1.67;;;1.40;;
64684;SDS011;51109;47.414;18.954;2023-09-19T15:16:10;2.40;;;1.40;;
64684;SDS011;51109;47.414;18.954;2023-09-19T15:18:38;2.10;;;1.20;;
64684;SDS011;51109;47.414;18.954;2023-09-19T15:21:07;1.73;;;1.25;;
64684;SDS011;51109;47.414;18.954;2023-09-19T15:23:34;3.63;;;1.45;;
64684;SDS011;51109;47.414;18.954;2023-09-19T15:26:02;2.13;;;1.70;;
64684;SDS011;51109;47.414;18.954;2023-09-19T15:28:29;4.78;;;1.60;;
64684;SDS011;51109;47.414;18.954;2023-09-19T15:31:13;3.28;;;1.50;;
64684;SDS011;51109;47.414;18.954;2023-09-19T15:33:39;3.80;;;1.20;;
64684;SDS011;51109;47.414;18.954;2023-09-19T15:41:25;3.78;;;1.27;;
64684;SDS011;51109;47.414;18.954;2023-09-19T15:43:52;1.48;;;1.10;;
64684;SDS011;51109;47.414;18.954;2023-09-19T15:46:19;1.30;;;1.20;;
64684;SDS011;51109;47.414;18.954;2023-09-19T15:48:45;2.20;;;1.20;;
64684;SDS011;51109;47.414;18.954;2023-09-19T15:51:11;1.10;;;1.00;;
64684;SDS011;51109;47.414;18.954;2023-09-19T15:53:44;1.58;;;1.17;;
64684;SDS011;51109;47.414;18.954;2023-09-19T15:56:15;3.40;;;1.45;;
64684;SDS011;51109;47.414;18.954;2023-09-19T15:58:49;2.92;;;1.20;;
64684;SDS011;51109;47.414;18.954;2023-09-19T16:01:16;1.10;;;1.00;;
64684;SDS011;51109;47.414;18.954;2023-09-19T16:03:52;2.13;;;0.98;;
64684;SDS011;51109;47.414;18.954;2023-09-19T16:06:23;2.00;;;1.27;;